sensor_id;sensor_type;location;lat;lon;timestamp;P1;durP1;ratioP1;P2;durP2;ratioP2
45522;SDS011;31254;51.680;5.394;2022-07-23T00:00:28;14.13;;;9.07;;
45522;SDS011;31254;51.680;5.394;2022-07-23T00:03:03;16.63;;;8.82;;
45522;SDS011;31254;51.680;5.394;2022-07-23T00:05:30;20.10;;;9.18;;
45522;SDS011;31254;51.680;5.394;2022-07-23T00:08:00;10.80;;;7.07;;
45522;SDS011;31254;51.680;5.394;2022-07-23T00:10:29;14.18;;;8.32;;
45522;SDS011;31254;51.680;5.394;2022-07-23T00:12:58;10.38;;;7.57;;
45522;SDS011;31254;51.680;5.394;2022-07-23T00:15:25;10.05;;;6.68;;
45522;SDS011;31254;51.680;5.394;2022-07-23T00:17:52;9.63;;;7.43;;
45522;SDS011;31254;51.680;5.394;2022-07-23T00:20:19;11.38;;;7.00;;
45522;SDS011;31254;51.680;5.394;2022-07-23T00:22:46;9.90;;;7.40;;
45522;SDS011;31254;51.680;5.394;2022-07-23T00:25:24;9.95;;;6.95;;
45522;SDS011;31254;51.680;5.394;2022-07-23T00:27:55;15.20;;;6.80;;
45522;SDS011;31254;51.680;5.394;2022-07-23T00:30:24;11.73;;;7.28;;
45522;SDS011;31254;51.680;5.394;2022-07-23T00:32:56;7.93;;;5.45;;
45522;SDS011;31254;51.680;5.394;2022-07-23T00:35:29;7.28;;;5.25;;
45522;SDS011;31254;51.680;5.394;2022-07-23T00:37:57;7.05;;;5.40;;
45522;SDS011;31254;51.680;5.394;2022-07-23T00:40:28;8.85;;;5.10;;
45522;SDS011;31254;51.680;5.394;2022-07-23T00:42:55;8.15;;;5.07;;
45522;SDS011;31254;51.680;5.394;2022-07-23T00:45:28;8.63;;;4.80;;
45522;SDS011;31254;51.680;5.394;2022-07-23T00:47:55;7.05;;;4.40;;
45522;SDS011;31254;51.680;5.394;2022-07-23T00:50:23;6.50;;;4.57;;
45522;SDS011;31254;51.680;5.394;2022-07-23T00:52:50;11.60;;;5.00;;
45522;SDS011;31254;51.680;5.394;2022-07-23T00:55:16;9.10;;;4.70;;
45522;SDS011;31254;51.680;5.394;2022-07-23T00:57:43;7.07;;;4.57;;
45522;SDS011;31254;51.680;5.394;2022-07-23T01:00:11;8.63;;;4.55;;
45522;SDS011;31254;51.680;5.394;2022-07-23T01:02:39;7.50;;;4.85;;
45522;SDS011;31254;51.680;5.394;2022-07-23T01:05:07;9.80;;;4.43;;
45522;SDS011;31254;51.680;5.394;2022-07-23T01:07:37;5.72;;;4.60;;
45522;SDS011;31254;51.680;5.394;2022-07-23T01:10:05;7.32;;;4.28;;
45522;SDS011;31254;51.680;5.394;2022-07-23T01:12:52;5.25;;;3.97;;
45522;SDS011;31254;51.680;5.394;2022-07-23T01:15:23;9.13;;;4.45;;
45522;SDS011;31254;51.680;5.394;2022-07-23T01:17:55;8.68;;;4.80;;
45522;SDS011;31254;51.680;5.394;2022-07-23T01:20:22;7.75;;;4.82;;
45522;SDS011;31254;51.680;5.394;2022-07-23T01:22:49;9.48;;;4.65;;
45522;SDS011;31254;51.680;5.394;2022-07-23T01:25:17;6.82;;;4.75;;
45522;SDS011;31254;51.680;5.394;2022-07-23T01:27:43;9.90;;;4.50;;
45522;SDS011;31254;51.680;5.394;2022-07-23T01:30:10;7.65;;;4.90;;
45522;SDS011;31254;51.680;5.394;2022-07-23T01:32:42;8.60;;;4.88;;
45522;SDS011;31254;51.680;5.394;2022-07-23T01:35:09;8.40;;;4.72;;
45522;SDS011;31254;51.680;5.394;2022-07-23T01:37:36;10.43;;;4.88;;
45522;SDS011;31254;51.680;5.394;2022-07-23T01:40:03;12.20;;;5.30;;
45522;SDS011;31254;51.680;5.394;2022-07-23T01:42:33;8.68;;;4.95;;
45522;SDS011;31254;51.680;5.394;2022-07-23T01:45:02;8.80;;;5.03;;
45522;SDS011;31254;51.680;5.394;2022-07-23T01:47:34;10.70;;;5.10;;
45522;SDS011;31254;51.680;5.394;2022-07-23T01:50:01;6.97;;;5.15;;
45522;SDS011;31254;51.680;5.394;2022-07-23T01:52:27;7.35;;;5.32;;
45522;SDS011;31254;51.680;5.394;2022-07-23T01:54:56;7.40;;;5.00;;
45522;SDS011;31254;51.680;5.394;2022-07-23T01:57:23;6.78;;;4.90;;
45522;SDS011;31254;51.680;5.394;2022-07-23T01:59:49;11.27;;;5.28;;
45522;SDS011;31254;51.680;5.394;2022-07-23T02:02:18;8.70;;;5.10;;
45522;SDS011;31254;51.680;5.394;2022-07-23T02:04:45;8.10;;;4.82;;
45522;SDS011;31254;51.680;5.394;2022-07-23T02:07:15;9.13;;;5.00;;
45522;SDS011;31254;51.680;5.394;2022-07-23T02:09:46;9.05;;;5.18;;
45522;SDS011;31254;51.680;5.394;2022-07-23T02:12:13;10.45;;;5.63;;
45522;SDS011;31254;51.680;5.394;2022-07-23T02:14:43;7.63;;;5.07;;
45522;SDS011;31254;51.680;5.394;2022-07-23T02:17:13;8.50;;;5.95;;
45522;SDS011;31254;51.680;5.394;2022-07-23T02:19:39;7.80;;;5.70;;
45522;SDS011;31254;51.680;5.394;2022-07-23T02:22:06;8.93;;;5.57;;
45522;SDS011;31254;51.680;5.394;2022-07-23T02:24:32;7.85;;;5.65;;
45522;SDS011;31254;51.680;5.394;2022-07-23T02:27:01;10.75;;;5.63;;
45522;SDS011;31254;51.680;5.394;2022-07-23T02:29:30;7.35;;;5.63;;
45522;SDS011;31254;51.680;5.394;2022-07-23T02:31:57;9.65;;;5.88;;
45522;SDS011;31254;51.680;5.394;2022-07-23T02:34:23;8.10;;;5.70;;
45522;SDS011;31254;51.680;5.394;2022-07-23T02:36:50;13.55;;;6.00;;
45522;SDS011;31254;51.680;5.394;2022-07-23T02:39:17;8.35;;;6.13;;
45522;SDS011;31254;51.680;5.394;2022-07-23T02:41:46;10.25;;;6.55;;
45522;SDS011;31254;51.680;5.394;2022-07-23T02:44:15;8.93;;;6.15;;
45522;SDS011;31254;51.680;5.394;2022-07-23T02:46:41;12.70;;;6.20;;
45522;SDS011;31254;51.680;5.394;2022-07-23T02:49:13;12.85;;;6.47;;
45522;SDS011;31254;51.680;5.394;2022-07-23T02:51:39;12.65;;;6.45;;
45522;SDS011;31254;51.680;5.394;2022-07-23T02:54:06;10.27;;;6.10;;
45522;SDS011;31254;51.680;5.394;2022-07-23T02:56:33;8.77;;;6.32;;
45522;SDS011;31254;51.680;5.394;2022-07-23T02:58:59;13.43;;;6.47;;
45522;SDS011;31254;51.680;5.394;2022-07-23T03:01:26;10.15;;;6.13;;
45522;SDS011;31254;51.680;5.394;2022-07-23T03:03:53;11.88;;;6.47;;
45522;SDS011;31254;51.680;5.394;2022-07-23T03:06:22;7.80;;;5.93;;
45522;SDS011;31254;51.680;5.394;2022-07-23T03:08:48;19.23;;;6.57;;
45522;SDS011;31254;51.680;5.394;2022-07-23T03:11:17;9.30;;;6.53;;
45522;SDS011;31254;51.680;5.394;2022-07-23T03:13:44;11.73;;;6.18;;
45522;SDS011;31254;51.680;5.394;2022-07-23T03:16:11;10.02;;;6.40;;
45522;SDS011;31254;51.680;5.394;2022-07-23T03:18:40;11.57;;;5.90;;
45522;SDS011;31254;51.680;5.394;2022-07-23T03:21:08;9.90;;;6.30;;
45522;SDS011;31254;51.680;5.394;2022-07-23T03:23:39;10.50;;;6.15;;
45522;SDS011;31254;51.680;5.394;2022-07-23T03:26:06;7.60;;;5.72;;
45522;SDS011;31254;51.680;5.394;2022-07-23T03:28:32;9.02;;;6.30;;
45522;SDS011;31254;51.680;5.394;2022-07-23T03:30:59;12.63;;;6.47;;
45522;SDS011;31254;51.680;5.394;2022-07-23T03:33:28;8.05;;;6.25;;
45522;SDS011;31254;51.680;5.394;2022-07-23T03:35:55;10.40;;;6.85;;
45522;SDS011;31254;51.680;5.394;2022-07-23T03:38:21;9.20;;;5.93;;
45522;SDS011;31254;51.680;5.394;2022-07-23T03:40:49;7.88;;;6.07;;
45522;SDS011;31254;51.680;5.394;2022-07-23T03:43:15;9.88;;;6.70;;
45522;SDS011;31254;51.680;5.394;2022-07-23T03:45:42;10.23;;;6.18;;
45522;SDS011;31254;51.680;5.394;2022-07-23T03:48:11;10.80;;;6.25;;
45522;SDS011;31254;51.680;5.394;2022-07-23T03:50:37;10.52;;;6.15;;
45522;SDS011;31254;51.680;5.394;2022-07-23T03:53:04;9.77;;;5.80;;
45522;SDS011;31254;51.680;5.394;2022-07-23T03:55:31;9.13;;;5.93;;
45522;SDS011;31254;51.680;5.394;2022-07-23T03:57:57;12.35;;;6.32;;
45522;SDS011;31254;51.680;5.394;2022-07-23T04:00:26;14.20;;;7.00;;
45522;SDS011;31254;51.680;5.394;2022-07-23T04:02:53;10.55;;;6.40;;
45522;SDS011;31254;51.680;5.394;2022-07-23T04:05:19;15.13;;;6.47;;
45522;SDS011;31254;51.680;5.394;2022-07-23T04:07:49;10.65;;;6.30;;
45522;SDS011;31254;51.680;5.394;2022-07-23T04:10:16;11.23;;;6.30;;
45522;SDS011;31254;51.680;5.394;2022-07-23T04:12:45;12.52;;;6.90;;
45522;SDS011;31254;51.680;5.394;2022-07-23T04:15:11;11.20;;;6.22;;
45522;SDS011;31254;51.680;5.394;2022-07-23T04:17:40;8.60;;;6.55;;
45522;SDS011;31254;51.680;5.394;2022-07-23T04:20:12;10.80;;;6.45;;
45522;SDS011;31254;51.680;5.394;2022-07-23T04:22:42;9.88;;;6.38;;
45522;SDS011;31254;51.680;5.394;2022-07-23T04:25:09;9.93;;;6.20;;
45522;SDS011;31254;51.680;5.394;2022-07-23T04:27:35;9.77;;;6.22;;
45522;SDS011;31254;51.680;5.394;2022-07-23T04:30:02;8.65;;;6.60;;
45522;SDS011;31254;51.680;5.394;2022-07-23T04:32:29;11.68;;;6.13;;
45522;SDS011;31254;51.680;5.394;2022-07-23T04:34:56;7.68;;;6.28;;
45522;SDS011;31254;51.680;5.394;2022-07-23T04:37:22;14.18;;;6.22;;
45522;SDS011;31254;51.680;5.394;2022-07-23T04:39:51;7.57;;;5.90;;
45522;SDS011;31254;51.680;5.394;2022-07-23T04:42:18;9.57;;;6.38;;
45522;SDS011;31254;51.680;5.394;2022-07-23T04:44:47;13.43;;;6.60;;
45522;SDS011;31254;51.680;5.394;2022-07-23T04:47:13;11.70;;;6.50;;
45522;SDS011;31254;51.680;5.394;2022-07-23T04:49:42;9.75;;;6.50;;
45522;SDS011;31254;51.680;5.394;2022-07-23T04:52:11;8.82;;;5.85;;
45522;SDS011;31254;51.680;5.394;2022-07-23T04:54:38;8.77;;;5.82;;
45522;SDS011;31254;51.680;5.394;2022-07-23T04:57:06;12.13;;;6.15;;
45522;SDS011;31254;51.680;5.394;2022-07-23T04:59:33;11.20;;;5.50;;
45522;SDS011;31254;51.680;5.394;2022-07-23T05:01:59;10.05;;;5.80;;
45522;SDS011;31254;51.680;5.394;2022-07-23T05:04:26;8.68;;;5.47;;
45522;SDS011;31254;51.680;5.394;2022-07-23T05:06:53;12.02;;;5.70;;
45522;SDS011;31254;51.680;5.394;2022-07-23T05:09:20;8.93;;;5.60;;
45522;SDS011;31254;51.680;5.394;2022-07-23T05:11:46;8.60;;;5.53;;
45522;SDS011;31254;51.680;5.394;2022-07-23T05:14:13;10.57;;;5.20;;
45522;SDS011;31254;51.680;5.394;2022-07-23T05:16:42;6.75;;;4.68;;
45522;SDS011;31254;51.680;5.394;2022-07-23T05:19:09;6.63;;;4.82;;
45522;SDS011;31254;51.680;5.394;2022-07-23T05:21:36;7.95;;;4.30;;
45522;SDS011;31254;51.680;5.394;2022-07-23T05:24:02;10.02;;;4.10;;
45522;SDS011;31254;51.680;5.394;2022-07-23T05:26:29;8.25;;;4.32;;
45522;SDS011;31254;51.680;5.394;2022-07-23T05:28:56;6.85;;;4.30;;
45522;SDS011;31254;51.680;5.394;2022-07-23T05:31:23;7.22;;;4.18;;
45522;SDS011;31254;51.680;5.394;2022-07-23T05:33:50;11.05;;;4.13;;
45522;SDS011;31254;51.680;5.394;2022-07-23T05:36:19;5.13;;;3.53;;
45522;SDS011;31254;51.680;5.394;2022-07-23T05:38:45;7.50;;;4.07;;
45522;SDS011;31254;51.680;5.394;2022-07-23T05:41:12;6.22;;;3.60;;
45522;SDS011;31254;51.680;5.394;2022-07-23T05:43:43;6.00;;;3.60;;
45522;SDS011;31254;51.680;5.394;2022-07-23T05:46:11;5.93;;;3.60;;
45522;SDS011;31254;51.680;5.394;2022-07-23T05:48:38;7.30;;;3.97;;
45522;SDS011;31254;51.680;5.394;2022-07-23T05:51:04;7.47;;;4.07;;
45522;SDS011;31254;51.680;5.394;2022-07-23T05:53:35;7.55;;;3.92;;
45522;SDS011;31254;51.680;5.394;2022-07-23T05:56:02;7.88;;;3.78;;
45522;SDS011;31254;51.680;5.394;2022-07-23T05:58:31;4.88;;;3.50;;
45522;SDS011;31254;51.680;5.394;2022-07-23T06:01:00;5.97;;;3.67;;
45522;SDS011;31254;51.680;5.394;2022-07-23T06:03:31;5.55;;;3.60;;
45522;SDS011;31254;51.680;5.394;2022-07-23T06:05:58;6.97;;;3.60;;
45522;SDS011;31254;51.680;5.394;2022-07-23T06:08:27;4.93;;;3.35;;
45522;SDS011;31254;51.680;5.394;2022-07-23T06:10:54;5.50;;;3.55;;
45522;SDS011;31254;51.680;5.394;2022-07-23T06:13:20;5.07;;;3.22;;
45522;SDS011;31254;51.680;5.394;2022-07-23T06:15:47;6.95;;;3.55;;
45522;SDS011;31254;51.680;5.394;2022-07-23T06:18:14;12.40;;;3.85;;
45522;SDS011;31254;51.680;5.394;2022-07-23T06:20:41;8.17;;;4.37;;
45522;SDS011;31254;51.680;5.394;2022-07-23T06:23:07;5.18;;;3.75;;
45522;SDS011;31254;51.680;5.394;2022-07-23T06:25:34;7.15;;;3.20;;
45522;SDS011;31254;51.680;5.394;2022-07-23T06:28:00;4.88;;;2.80;;
45522;SDS011;31254;51.680;5.394;2022-07-23T06:30:27;5.20;;;3.17;;
45522;SDS011;31254;51.680;5.394;2022-07-23T06:32:54;4.82;;;2.95;;
45522;SDS011;31254;51.680;5.394;2022-07-23T06:35:27;6.68;;;3.80;;
45522;SDS011;31254;51.680;5.394;2022-07-23T06:37:55;4.78;;;3.05;;
45522;SDS011;31254;51.680;5.394;2022-07-23T06:40:23;5.82;;;3.15;;
45522;SDS011;31254;51.680;5.394;2022-07-23T06:42:51;7.10;;;2.85;;
45522;SDS011;31254;51.680;5.394;2022-07-23T06:45:18;6.07;;;3.17;;
45522;SDS011;31254;51.680;5.394;2022-07-23T06:47:44;5.20;;;3.50;;
45522;SDS011;31254;51.680;5.394;2022-07-23T06:50:11;6.13;;;3.53;;
45522;SDS011;31254;51.680;5.394;2022-07-23T06:52:38;7.25;;;3.10;;
45522;SDS011;31254;51.680;5.394;2022-07-23T06:55:08;4.60;;;2.67;;
45522;SDS011;31254;51.680;5.394;2022-07-23T06:57:38;4.93;;;2.80;;
45522;SDS011;31254;51.680;5.394;2022-07-23T07:00:05;6.13;;;2.80;;
45522;SDS011;31254;51.680;5.394;2022-07-23T07:02:32;5.35;;;2.95;;
45522;SDS011;31254;51.680;5.394;2022-07-23T07:04:59;4.65;;;2.78;;
45522;SDS011;31254;51.680;5.394;2022-07-23T07:07:31;5.05;;;2.50;;
45522;SDS011;31254;51.680;5.394;2022-07-23T07:09:57;6.53;;;2.60;;
45522;SDS011;31254;51.680;5.394;2022-07-23T07:12:24;7.80;;;3.03;;
45522;SDS011;31254;51.680;5.394;2022-07-23T07:14:50;7.80;;;2.75;;
45522;SDS011;31254;51.680;5.394;2022-07-23T07:17:17;4.15;;;2.95;;
45522;SDS011;31254;51.680;5.394;2022-07-23T07:19:44;6.05;;;2.90;;
45522;SDS011;31254;51.680;5.394;2022-07-23T07:22:13;7.45;;;2.30;;
45522;SDS011;31254;51.680;5.394;2022-07-23T07:24:42;5.72;;;2.63;;
45522;SDS011;31254;51.680;5.394;2022-07-23T07:27:08;6.28;;;2.45;;
45522;SDS011;31254;51.680;5.394;2022-07-23T07:29:35;5.32;;;2.92;;
45522;SDS011;31254;51.680;5.394;2022-07-23T07:32:02;4.32;;;2.40;;
45522;SDS011;31254;51.680;5.394;2022-07-23T07:34:31;4.93;;;2.15;;
45522;SDS011;31254;51.680;5.394;2022-07-23T07:37:00;5.60;;;2.40;;
45522;SDS011;31254;51.680;5.394;2022-07-23T07:39:26;2.70;;;2.17;;
45522;SDS011;31254;51.680;5.394;2022-07-23T07:41:53;3.40;;;2.35;;
45522;SDS011;31254;51.680;5.394;2022-07-23T07:44:22;3.55;;;2.15;;
45522;SDS011;31254;51.680;5.394;2022-07-23T07:46:49;5.22;;;2.20;;
45522;SDS011;31254;51.680;5.394;2022-07-23T07:49:15;4.72;;;2.33;;
45522;SDS011;31254;51.680;5.394;2022-07-23T07:51:47;3.90;;;1.88;;
45522;SDS011;31254;51.680;5.394;2022-07-23T07:54:14;2.83;;;1.90;;
45522;SDS011;31254;51.680;5.394;2022-07-23T07:56:40;4.85;;;1.98;;
45522;SDS011;31254;51.680;5.394;2022-07-23T07:59:11;4.35;;;1.90;;
45522;SDS011;31254;51.680;5.394;2022-07-23T08:01:39;3.88;;;2.13;;
45522;SDS011;31254;51.680;5.394;2022-07-23T08:04:06;4.65;;;2.25;;
45522;SDS011;31254;51.680;5.394;2022-07-23T08:06:32;6.22;;;2.47;;
45522;SDS011;31254;51.680;5.394;2022-07-23T08:09:02;4.40;;;3.03;;
45522;SDS011;31254;51.680;5.394;2022-07-23T08:11:28;6.68;;;3.00;;
45522;SDS011;31254;51.680;5.394;2022-07-23T08:13:57;5.03;;;2.72;;
45522;SDS011;31254;51.680;5.394;2022-07-23T08:16:24;6.97;;;2.40;;
45522;SDS011;31254;51.680;5.394;2022-07-23T08:18:51;4.20;;;2.33;;
45522;SDS011;31254;51.680;5.394;2022-07-23T08:21:17;5.78;;;2.60;;
45522;SDS011;31254;51.680;5.394;2022-07-23T08:23:44;5.75;;;2.47;;
45522;SDS011;31254;51.680;5.394;2022-07-23T08:26:11;6.53;;;2.72;;
45522;SDS011;31254;51.680;5.394;2022-07-23T08:28:38;5.32;;;2.55;;
45522;SDS011;31254;51.680;5.394;2022-07-23T08:31:05;3.95;;;2.22;;
45522;SDS011;31254;51.680;5.394;2022-07-23T08:33:34;3.92;;;2.55;;
45522;SDS011;31254;51.680;5.394;2022-07-23T08:36:02;5.70;;;2.40;;
45522;SDS011;31254;51.680;5.394;2022-07-23T08:38:30;7.07;;;2.80;;
45522;SDS011;31254;51.680;5.394;2022-07-23T08:40:58;4.43;;;2.75;;
45522;SDS011;31254;51.680;5.394;2022-07-23T08:43:25;4.38;;;2.33;;
45522;SDS011;31254;51.680;5.394;2022-07-23T08:45:56;6.45;;;3.30;;
45522;SDS011;31254;51.680;5.394;2022-07-23T08:48:27;4.15;;;2.53;;
45522;SDS011;31254;51.680;5.394;2022-07-23T08:50:57;4.70;;;2.55;;
45522;SDS011;31254;51.680;5.394;2022-07-23T08:53:27;6.13;;;2.50;;
45522;SDS011;31254;51.680;5.394;2022-07-23T08:55:56;6.18;;;2.45;;
45522;SDS011;31254;51.680;5.394;2022-07-23T08:58:24;5.97;;;3.15;;
45522;SDS011;31254;51.680;5.394;2022-07-23T09:00:54;7.45;;;3.13;;
45522;SDS011;31254;51.680;5.394;2022-07-23T09:03:24;5.80;;;2.65;;
45522;SDS011;31254;51.680;5.394;2022-07-23T09:05:53;5.32;;;3.13;;
45522;SDS011;31254;51.680;5.394;2022-07-23T09:08:22;4.32;;;3.10;;
45522;SDS011;31254;51.680;5.394;2022-07-23T09:15:52;6.45;;;2.78;;
45522;SDS011;31254;51.680;5.394;2022-07-23T09:23:43;5.65;;;3.00;;
45522;SDS011;31254;51.680;5.394;2022-07-23T09:26:44;6.22;;;2.83;;
45522;SDS011;31254;51.680;5.394;2022-07-23T09:29:11;6.15;;;3.33;;
45522;SDS011;31254;51.680;5.394;2022-07-23T09:34:31;6.32;;;3.20;;
45522;SDS011;31254;51.680;5.394;2022-07-23T09:37:11;5.67;;;3.53;;
45522;SDS011;31254;51.680;5.394;2022-07-23T09:39:40;4.72;;;3.33;;
45522;SDS011;31254;51.680;5.394;2022-07-23T09:44:46;6.75;;;3.50;;
45522;SDS011;31254;51.680;5.394;2022-07-23T09:47:14;5.93;;;3.10;;
45522;SDS011;31254;51.680;5.394;2022-07-23T09:49:57;8.50;;;3.70;;
45522;SDS011;31254;51.680;5.394;2022-07-23T09:52:32;8.32;;;3.95;;
45522;SDS011;31254;51.680;5.394;2022-07-23T09:55:04;6.13;;;3.30;;
45522;SDS011;31254;51.680;5.394;2022-07-23T09:57:32;7.18;;;3.72;;
45522;SDS011;31254;51.680;5.394;2022-07-23T10:00:04;7.28;;;4.10;;
45522;SDS011;31254;51.680;5.394;2022-07-23T10:02:38;8.40;;;4.03;;
45522;SDS011;31254;51.680;5.394;2022-07-23T10:05:05;5.60;;;3.83;;
45522;SDS011;31254;51.680;5.394;2022-07-23T10:07:37;7.20;;;4.33;;
45522;SDS011;31254;51.680;5.394;2022-07-23T10:10:06;6.88;;;3.67;;
45522;SDS011;31254;51.680;5.394;2022-07-23T10:12:35;4.82;;;3.25;;
45522;SDS011;31254;51.680;5.394;2022-07-23T10:15:22;6.28;;;3.67;;
45522;SDS011;31254;51.680;5.394;2022-07-23T10:17:49;7.22;;;3.58;;
45522;SDS011;31254;51.680;5.394;2022-07-23T10:20:16;6.72;;;3.22;;
45522;SDS011;31254;51.680;5.394;2022-07-23T10:22:59;5.15;;;3.35;;
45522;SDS011;31254;51.680;5.394;2022-07-23T10:39:13;5.53;;;3.42;;
45522;SDS011;31254;51.680;5.394;2022-07-23T10:41:45;5.05;;;2.50;;
45522;SDS011;31254;51.680;5.394;2022-07-23T10:44:11;5.22;;;2.70;;
45522;SDS011;31254;51.680;5.394;2022-07-23T10:49:35;5.63;;;2.72;;
45522;SDS011;31254;51.680;5.394;2022-07-23T10:54:48;4.53;;;2.53;;
45522;SDS011;31254;51.680;5.394;2022-07-23T10:57:26;7.32;;;2.50;;
45522;SDS011;31254;51.680;5.394;2022-07-23T11:02:33;9.07;;;3.95;;
45522;SDS011;31254;51.680;5.394;2022-07-23T11:05:01;6.60;;;2.42;;
45522;SDS011;31254;51.680;5.394;2022-07-23T11:07:31;6.82;;;2.70;;
45522;SDS011;31254;51.680;5.394;2022-07-23T11:10:00;6.10;;;2.70;;
45522;SDS011;31254;51.680;5.394;2022-07-23T11:15:11;7.30;;;2.40;;
45522;SDS011;31254;51.680;5.394;2022-07-23T11:25:11;4.75;;;2.05;;
45522;SDS011;31254;51.680;5.394;2022-07-23T11:27:43;4.05;;;2.08;;
45522;SDS011;31254;51.680;5.394;2022-07-23T11:32:54;3.83;;;2.30;;
45522;SDS011;31254;51.680;5.394;2022-07-23T11:35:44;5.60;;;2.30;;
45522;SDS011;31254;51.680;5.394;2022-07-23T11:38:18;6.03;;;2.22;;
45522;SDS011;31254;51.680;5.394;2022-07-23T11:40:48;5.78;;;2.47;;
45522;SDS011;31254;51.680;5.394;2022-07-23T11:43:17;11.00;;;3.10;;
45522;SDS011;31254;51.680;5.394;2022-07-23T11:45:47;12.88;;;3.30;;
45522;SDS011;31254;51.680;5.394;2022-07-23T11:48:22;4.22;;;2.00;;
45522;SDS011;31254;51.680;5.394;2022-07-23T11:50:54;3.13;;;1.75;;
45522;SDS011;31254;51.680;5.394;2022-07-23T11:56:04;3.22;;;1.90;;
45522;SDS011;31254;51.680;5.394;2022-07-23T11:58:38;3.72;;;1.42;;
45522;SDS011;31254;51.680;5.394;2022-07-23T12:01:21;3.25;;;1.70;;
45522;SDS011;31254;51.680;5.394;2022-07-23T12:03:50;5.28;;;1.90;;
45522;SDS011;31254;51.680;5.394;2022-07-23T12:06:21;3.85;;;1.90;;
45522;SDS011;31254;51.680;5.394;2022-07-23T12:08:48;3.38;;;2.50;;
45522;SDS011;31254;51.680;5.394;2022-07-23T12:11:15;3.55;;;1.92;;
45522;SDS011;31254;51.680;5.394;2022-07-23T12:13:41;3.60;;;1.63;;
45522;SDS011;31254;51.680;5.394;2022-07-23T12:16:08;5.32;;;2.13;;
45522;SDS011;31254;51.680;5.394;2022-07-23T12:18:35;4.35;;;2.22;;
45522;SDS011;31254;51.680;5.394;2022-07-23T12:21:03;4.20;;;1.90;;
45522;SDS011;31254;51.680;5.394;2022-07-23T12:23:35;4.10;;;1.92;;
45522;SDS011;31254;51.680;5.394;2022-07-23T12:26:04;4.97;;;2.30;;
45522;SDS011;31254;51.680;5.394;2022-07-23T12:28:33;5.63;;;2.50;;
45522;SDS011;31254;51.680;5.394;2022-07-23T12:31:00;5.88;;;2.13;;
45522;SDS011;31254;51.680;5.394;2022-07-23T12:33:32;3.13;;;2.17;;
45522;SDS011;31254;51.680;5.394;2022-07-23T12:36:01;3.42;;;2.05;;
45522;SDS011;31254;51.680;5.394;2022-07-23T12:38:43;5.55;;;2.30;;
45522;SDS011;31254;51.680;5.394;2022-07-23T12:41:13;4.35;;;1.98;;
45522;SDS011;31254;51.680;5.394;2022-07-23T12:43:44;2.55;;;1.63;;
45522;SDS011;31254;51.680;5.394;2022-07-23T12:46:13;3.65;;;1.92;;
45522;SDS011;31254;51.680;5.394;2022-07-23T12:51:23;5.10;;;2.10;;
45522;SDS011;31254;51.680;5.394;2022-07-23T12:53:55;4.57;;;2.17;;
45522;SDS011;31254;51.680;5.394;2022-07-23T12:56:30;5.75;;;2.30;;
45522;SDS011;31254;51.680;5.394;2022-07-23T13:01:34;3.38;;;2.08;;
45522;SDS011;31254;51.680;5.394;2022-07-23T13:04:20;6.72;;;2.88;;
45522;SDS011;31254;51.680;5.394;2022-07-23T13:06:52;11.98;;;2.90;;
45522;SDS011;31254;51.680;5.394;2022-07-23T13:09:20;8.23;;;3.35;;
45522;SDS011;31254;51.680;5.394;2022-07-23T13:11:50;5.70;;;2.70;;
45522;SDS011;31254;51.680;5.394;2022-07-23T13:14:22;3.70;;;2.53;;
45522;SDS011;31254;51.680;5.394;2022-07-23T13:16:52;6.47;;;2.72;;
45522;SDS011;31254;51.680;5.394;2022-07-23T13:19:22;4.40;;;2.53;;
45522;SDS011;31254;51.680;5.394;2022-07-23T13:21:51;4.65;;;2.42;;
45522;SDS011;31254;51.680;5.394;2022-07-23T13:24:18;4.95;;;2.50;;
45522;SDS011;31254;51.680;5.394;2022-07-23T13:26:47;3.30;;;2.00;;
45522;SDS011;31254;51.680;5.394;2022-07-23T13:29:16;7.53;;;2.45;;
45522;SDS011;31254;51.680;5.394;2022-07-23T13:31:45;3.05;;;2.15;;
45522;SDS011;31254;51.680;5.394;2022-07-23T13:34:13;4.03;;;2.10;;
45522;SDS011;31254;51.680;5.394;2022-07-23T13:36:39;4.85;;;2.28;;
45522;SDS011;31254;51.680;5.394;2022-07-23T13:39:06;6.53;;;2.38;;
45522;SDS011;31254;51.680;5.394;2022-07-23T13:41:35;4.93;;;1.55;;
45522;SDS011;31254;51.680;5.394;2022-07-23T13:44:03;4.15;;;1.95;;
45522;SDS011;31254;51.680;5.394;2022-07-23T13:46:33;4.15;;;1.90;;
45522;SDS011;31254;51.680;5.394;2022-07-23T13:49:01;5.07;;;2.35;;
45522;SDS011;31254;51.680;5.394;2022-07-23T13:51:28;4.28;;;2.33;;
45522;SDS011;31254;51.680;5.394;2022-07-23T13:53:55;5.28;;;2.20;;
45522;SDS011;31254;51.680;5.394;2022-07-23T13:56:25;3.92;;;2.13;;
45522;SDS011;31254;51.680;5.394;2022-07-23T13:58:52;3.50;;;1.92;;
45522;SDS011;31254;51.680;5.394;2022-07-23T14:01:19;4.63;;;2.70;;
45522;SDS011;31254;51.680;5.394;2022-07-23T14:03:46;6.43;;;2.47;;
45522;SDS011;31254;51.680;5.394;2022-07-23T14:06:13;6.90;;;2.60;;
45522;SDS011;31254;51.680;5.394;2022-07-23T14:08:42;4.00;;;2.28;;
45522;SDS011;31254;51.680;5.394;2022-07-23T14:11:11;22.00;;;4.50;;
45522;SDS011;31254;51.680;5.394;2022-07-23T14:13:39;4.72;;;2.70;;
45522;SDS011;31254;51.680;5.394;2022-07-23T14:16:08;4.55;;;2.60;;
45522;SDS011;31254;51.680;5.394;2022-07-23T14:18:35;4.97;;;2.20;;
45522;SDS011;31254;51.680;5.394;2022-07-23T14:21:03;5.43;;;2.65;;
45522;SDS011;31254;51.680;5.394;2022-07-23T14:23:32;2.95;;;1.98;;
45522;SDS011;31254;51.680;5.394;2022-07-23T14:26:01;3.83;;;2.35;;
45522;SDS011;31254;51.680;5.394;2022-07-23T14:28:31;5.13;;;2.47;;
45522;SDS011;31254;51.680;5.394;2022-07-23T14:30:59;5.15;;;2.50;;
45522;SDS011;31254;51.680;5.394;2022-07-23T14:33:27;5.32;;;2.47;;
45522;SDS011;31254;51.680;5.394;2022-07-23T14:35:56;4.60;;;2.65;;
45522;SDS011;31254;51.680;5.394;2022-07-23T14:38:26;13.15;;;3.00;;
45522;SDS011;31254;51.680;5.394;2022-07-23T14:40:53;5.97;;;2.90;;
45522;SDS011;31254;51.680;5.394;2022-07-23T14:43:24;4.78;;;2.00;;
45522;SDS011;31254;51.680;5.394;2022-07-23T14:45:51;8.73;;;2.08;;
45522;SDS011;31254;51.680;5.394;2022-07-23T14:48:18;3.25;;;2.10;;
45522;SDS011;31254;51.680;5.394;2022-07-23T14:50:46;4.93;;;2.03;;
45522;SDS011;31254;51.680;5.394;2022-07-23T14:53:15;5.95;;;2.20;;
45522;SDS011;31254;51.680;5.394;2022-07-23T14:55:48;4.35;;;2.30;;
45522;SDS011;31254;51.680;5.394;2022-07-23T14:58:15;3.60;;;1.70;;
45522;SDS011;31254;51.680;5.394;2022-07-23T15:00:44;3.15;;;1.20;;
45522;SDS011;31254;51.680;5.394;2022-07-23T15:03:10;3.45;;;1.65;;
45522;SDS011;31254;51.680;5.394;2022-07-23T15:05:38;3.47;;;1.55;;
45522;SDS011;31254;51.680;5.394;2022-07-23T15:08:04;2.80;;;1.50;;
45522;SDS011;31254;51.680;5.394;2022-07-23T15:10:51;3.92;;;2.08;;
45522;SDS011;31254;51.680;5.394;2022-07-23T15:13:18;7.85;;;2.15;;
45522;SDS011;31254;51.680;5.394;2022-07-23T15:15:44;2.80;;;1.70;;
45522;SDS011;31254;51.680;5.394;2022-07-23T15:18:19;4.28;;;1.80;;
45522;SDS011;31254;51.680;5.394;2022-07-23T15:20:49;2.40;;;1.83;;
45522;SDS011;31254;51.680;5.394;2022-07-23T15:23:17;3.50;;;1.90;;
45522;SDS011;31254;51.680;5.394;2022-07-23T15:25:43;13.80;;;2.35;;
45522;SDS011;31254;51.680;5.394;2022-07-23T15:28:16;3.97;;;2.05;;
45522;SDS011;31254;51.680;5.394;2022-07-23T15:30:49;3.38;;;2.00;;
45522;SDS011;31254;51.680;5.394;2022-07-23T15:33:19;5.10;;;2.07;;
45522;SDS011;31254;51.680;5.394;2022-07-23T15:35:47;3.97;;;2.33;;
45522;SDS011;31254;51.680;5.394;2022-07-23T15:38:14;5.85;;;1.60;;
45522;SDS011;31254;51.680;5.394;2022-07-23T15:40:50;3.47;;;1.60;;
45522;SDS011;31254;51.680;5.394;2022-07-23T15:43:17;4.78;;;1.60;;
45522;SDS011;31254;51.680;5.394;2022-07-23T15:45:46;3.97;;;1.80;;
45522;SDS011;31254;51.680;5.394;2022-07-23T15:48:13;3.33;;;1.63;;
45522;SDS011;31254;51.680;5.394;2022-07-23T15:50:40;4.15;;;1.75;;
45522;SDS011;31254;51.680;5.394;2022-07-23T15:53:11;3.35;;;1.70;;